Latest Coastal Weather Observations for Williamtown

IDN60701

Issued at 5:51 pm EST Friday 29 July 2016 (issued every 10 minutes, with the page automatically refreshed every 10 minutes)

About coastal observations | Map of coastal stations | Coastal observations for NSW | Marine services | Other Formats
Station Details ID: 061078 Name: WILLIAMTOWN RAAF Lat: -32.79 Lon: 151.84 Height: 9.0 m
Data from the previous 72 hours. | See also: Recent months at Williamtown
Date/Time
EST
Temp
°C
Wind Pressure Rain since
9am
mm
Weather Cloud Vis
km
Sea
Height
m
Swell
Dir  Spd
kts
Gust
kts
hPa Trend Height
m
Period
s
Dir
29/05:30pm 13.0 WNW 11 16 1019.0 - 0.0 - - 10 - - - -
29/05:00pm 14.2 WNW 12 16 1019.0 - 0.0 - - 10 - - - -
29/04:30pm 15.4 WNW 14 17 1018.6 - 0.0 - - 10 - - - -
29/04:00pm 16.2 NW 17 22 1018.5 - 0.0 - - 10 - - - -
29/03:30pm 16.5 WNW 15 21 1018.7 - 0.0 - - 10 - - - -
29/03:00pm 16.7 WNW 15 21 1018.7 F 0.0 - - 10 - - - -
29/02:30pm 17.5 WNW 14 19 1018.7 - 0.0 - - 10 - - - -
29/02:00pm 17.2 WNW 15 18 1018.9 - 0.0 - - 10 - - - -
29/01:30pm 16.9 WNW 17 21 1019.2 - 0.0 - - 10 - - - -
29/01:00pm 16.4 NW 15 19 1019.8 - 0.0 - - 10 - - - -
29/12:30pm 16.7 NW 16 20 1020.4 - 0.0 - - 10 - - - -
29/12:00pm 15.7 NW 16 21 1021.1 F 0.0 - - 10 - - - -
29/11:30am 14.7 NW 15 19 1021.9 - 0.0 - - 10 - - - -
29/11:00am 14.1 NW 15 19 1022.7 - 0.0 - - 10 - - - -
29/10:30am 13.0 WNW 17 24 1023.1 - 0.0 - - 10 - - - -
29/10:00am 11.9 WNW 18 22 1023.5 - 0.0 - - 10 - - - -
29/09:30am 11.2 WNW 20 26 1023.6 - 0.0 - - 10 - - - -
29/09:00am 10.5 WNW 19 26 1023.6 F 0.0 - - 10 - - - -
29/08:30am 9.5 WNW 15 23 1023.6 - 0.0 - - 10 - - - -
29/08:00am 8.6 WNW 13 19 1023.5 - 0.0 - - 10 - - - -
29/07:30am 7.6 WNW 11 15 1023.6 - 0.0 - - 10 - - - -
29/07:00am 6.6 WNW 9 14 1023.5 - 0.0 - - 10 - - - -
29/06:30am 6.6 WNW 9 13 1023.5 - 0.0 - - 10 - - - -
29/06:00am 6.4 WNW 8 11 1023.2 F 0.0 - - 10 - - - -
29/05:30am 6.8 WNW 10 15 1023.0 - 0.0 - - 10 - - - -
29/05:00am 7.4 WNW 12 16 1023.1 - 0.0 - - 10 - - - -
29/04:30am 7.8 WNW 15 18 1022.9 - 0.0 - - 10 - - - -
29/04:00am 8.0 WNW 14 17 1022.8 - 0.0 - - 10 - - - -
29/03:30am 8.0 WNW 15 19 1022.6 - 0.0 - - 10 - - - -
29/03:00am 8.1 WNW 13 17 1022.7 R 0.0 - - 10 - - - -
29/02:30am 8.3 WNW 12 15 1022.7 - 0.0 - - 10 - - - -
29/02:00am 8.5 WNW 10 14 1022.7 - 0.0 - - 10 - - - -
29/01:30am 8.6 WNW 10 13 1022.8 - 0.0 - - 10 - - - -
29/01:00am 9.3 WNW 11 15 1022.9 - 0.0 - - 10 - - - -
29/12:30am 9.5 WNW 10 14 1023.0 - 0.0 - - 10 - - - -
29/12:00am 9.3 WNW 10 14 1023.1 R 0.0 - - 10 - - - -
 
Date/Time
EST
Temp
°C
Wind Pressure Rain since
9am
mm
Weather Cloud Vis
km
Sea
Height
m
Swell
Dir  Spd
kts
Gust
kts
hPa Trend Height
m
Period
s
Dir
28/11:30pm 9.2 WNW 8 11 1023.1 - 0.0 - - 10 - - - -
28/11:00pm 9.2 WNW 8 10 1023.1 - 0.0 - - 10 - - - -
28/10:30pm 9.6 WNW 8 10 1023.1 - 0.0 - - 10 - - - -
28/10:00pm 9.5 NW 7 9 1022.9 - 0.0 - - 10 - - - -
28/09:30pm 8.8 WNW 6 7 1022.9 - 0.0 - - 10 - - - -
28/09:00pm 9.5 WNW 5 6 1022.7 R 0.0 - - 10 - - - -
28/08:30pm 9.8 NW 6 6 1022.6 - 0.0 - - 10 - - - -
28/08:00pm 10.7 NNW 5 6 1022.5 - 0.0 - - 10 - - - -
28/07:30pm 12.0 NNW 6 6 1022.5 - 0.0 - - 10 - - - -
28/07:00pm 12.4 NW 7 9 1022.1 - 0.0 - - 10 - - - -
28/06:30pm 12.9 NW 6 7 1022.1 - 0.0 - - 10 - - - -
28/06:00pm 13.2 NW 8 9 1021.9 F 0.0 - - 10 - - - -
28/05:30pm 13.6 WNW 9 13 1021.7 - 0.0 - - 10 - - - -
28/05:00pm 15.2 NW 10 13 1021.5 - 0.0 - - 10 - - - -
28/04:30pm 16.6 NW 12 17 1021.4 - 0.0 - - 10 - - - -
28/04:00pm 17.2 WNW 14 20 1021.5 - 0.0 - - 10 - - - -
28/03:30pm 17.7 WNW 13 17 1021.4 - 0.0 - - 10 - - - -
28/03:00pm 18.0 WNW 14 18 1021.6 F 0.0 - - 10 - - - -
28/02:30pm 17.9 WNW 14 19 1021.7 - 0.0 - - 10 - - - -
28/02:00pm 17.7 W 11 16 1021.9 - 0.0 - - 10 - - - -
28/01:30pm 17.6 NW 13 16 1022.2 - 0.0 - - 10 - - - -
28/01:00pm 17.6 WNW 11 15 1022.5 - 0.0 - - 10 - - - -
28/12:30pm 16.6 WNW 13 17 1023.1 - 0.0 - - 10 - - - -
28/12:00pm 16.5 WNW 13 20 1023.7 F 0.0 - - 10 - - - -
28/11:30am 16.2 WNW 14 18 1024.2 - 0.0 - - 10 - - - -
28/11:00am 15.6 WNW 16 20 1024.7 - 0.0 - - 10 - - - -
28/10:30am 14.6 WNW 16 21 1025.1 - 0.0 - - 10 - - - -
28/10:00am 14.1 WNW 18 21 1025.2 - 0.0 - - 10 - - - -
28/09:30am 13.2 WNW 16 22 1025.1 - 0.0 - Mostly clear 10 - - - -
28/09:00am 12.1 WNW 16 20 1024.9 R 0.0 - Mostly clear 10 - - - -
28/08:30am 10.9 WNW 17 22 1024.8 - 0.0 - - 10 - - - -
28/08:00am 9.8 WNW 14 17 1024.4 - 0.0 - - 10 - - - -
28/07:30am 8.9 WNW 13 16 1024.1 - 0.0 - - 10 - - - -
28/07:00am 8.3 WNW 13 16 1023.6 - 0.0 - - 10 - - - -
28/06:30am 8.0 WNW 12 16 1023.2 - 0.0 - - 10 - - - -
28/06:00am 7.5 WNW 11 15 1022.9 R 0.0 - - 10 - - - -
28/05:30am 7.0 NW 10 12 1022.8 - 0.0 - - 10 - - - -
28/05:00am 8.1 NW 10 13 1022.3 - 0.0 - - 10 - - - -
28/04:30am 8.6 NW 11 14 1021.9 - 0.0 - - 10 - - - -
28/04:00am 8.8 WNW 12 14 1021.8 - 0.0 - - 10 - - - -
28/03:30am 8.8 WNW 11 14 1021.7 - 0.0 - - 10 - - - -
28/03:00am 9.1 WNW 11 15 1021.8 R 0.0 - - 10 - - - -
28/02:30am 9.5 WNW 11 16 1022.0 - 0.0 - - 10 - - - -
28/02:00am 9.2 WNW 9 13 1022.0 - 0.0 - - 10 - - - -
28/01:30am 9.8 WNW 11 15 1021.8 - 0.0 - - 10 - - - -
28/01:00am 10.0 WNW 11 16 1021.6 - 0.0 - - 10 - - - -
28/12:30am 10.3 WNW 11 15 1021.4 - 0.0 - - 10 - - - -
28/12:00am 10.2 WNW 8 10 1021.4 R 0.0 - - 10 - - - -
 
Date/Time
EST
Temp
°C
Wind Pressure Rain since
9am
mm
Weather Cloud Vis
km
Sea
Height
m
Swell
Dir  Spd
kts
Gust
kts
hPa Trend Height
m
Period
s
Dir
27/11:30pm 10.5 WNW 11 15 1021.2 - 0.0 - - 10 - - - -
27/11:00pm 11.0 WNW 12 16 1021.0 - 0.0 - - 10 - - - -
27/10:30pm 11.0 WNW 10 14 1020.8 - 0.0 - - 10 - - - -
27/10:00pm 11.0 W 10 13 1020.8 - 0.0 - - 10 - - - -
27/09:30pm 11.2 WNW 11 14 1020.6 - 0.0 - - 10 - - - -
27/09:00pm 11.6 WNW 10 12 1020.4 R 0.0 - - 10 - - - -
27/08:30pm 12.5 WNW 12 16 1020.0 - 0.0 - - 10 - - - -
27/08:00pm 12.3 WNW 10 14 1019.6 - 0.0 - - 10 - - - -
27/07:30pm 12.7 WNW 10 14 1019.1 - 0.0 - - 10 - - - -
27/07:00pm 13.1 WNW 10 15 1018.5 - 0.0 - - 10 - - - -
27/06:30pm 12.3 WNW 7 9 1018.0 - 0.0 - - 10 - - - -
27/06:00pm 12.9 WNW 8 10 1017.3 R 0.0 - - 10 - - - -
27/05:30pm 14.9 WNW 10 15 1016.7 - 0.0 - - 10 - - - -
27/05:00pm 15.9 WNW 11 15 1016.1 - 0.0 - - 10 - - - -
27/04:30pm 17.5 WNW 13 19 1015.5 - 0.0 - - 10 - - - -
27/04:05pm 18.0 WNW 16 26 1015.1 - 0.0 - - 10 - - - -
27/04:00pm 18.1 WNW 16 22 1015.1 - 0.0 - - 10 - - - -
27/03:30pm 18.6 WNW 20 32 1014.5 - 0.0 - Partly cloudy 10 - - - -
27/03:00pm 18.2 WNW 20 29 1014.0 R 0.0 - Mostly clear 10 - - - -
27/02:30pm 17.8 WNW 23 32 1014.1 - 0.0 - Partly cloudy 10 - - - -
27/02:00pm 19.1 WNW 23 32 1013.9 - 0.0 - Partly cloudy 10 - - - -
27/01:30pm 18.9 WNW 25 34 1013.7 - 0.0 - Partly cloudy 10 - - - -
27/01:00pm 19.2 WNW 28 39 1013.6 - 0.0 - - 10 - - - -
27/12:30pm 18.5 WNW 28 41 1013.4 - 0.0 - Partly cloudy 10 - - - -
27/12:00pm 18.3 NW 28 38 1014.0 R 0.0 - Partly cloudy 10 - - - -
27/11:30am 18.0 WNW 21 32 1014.9 - 0.0 - Mostly clear 10 - - - -
27/11:00am 18.4 WNW 24 34 1014.5 - 0.0 - Mostly clear 10 - - - -
27/10:30am 17.4 WNW 28 37 1014.8 - 0.0 - Mostly clear 10 - - - -
27/10:00am 17.5 WNW 16 26 1014.9 - 0.0 - Mostly clear 10 - - - -
27/09:30am 16.1 NW 11 17 1015.0 - 0.0 - Mostly clear 10 - - - -
27/09:00am 14.6 NW 13 18 1014.8 F 0.0 - Mostly clear 10 - - - -
27/08:30am 13.4 NW 7 10 1015.0 - 0.0 - - 10 - - - -
27/08:00am 12.6 NW 11 16 1015.0 - 0.0 - - 10 - - - -
27/07:30am 11.1 NW 12 16 1014.9 - 0.0 - - 10 - - - -
27/07:00am 10.0 WNW 12 16 1014.9 - 0.0 - - 10 - - - -
27/06:30am 8.0 WNW 10 14 1014.5 - 0.0 - - 10 - - - -
27/06:00am 7.5 WNW 7 8 1014.4 F 0.0 - - 10 - - - -
27/05:30am 7.3 NNW 6 7 1014.3 - 0.0 - - 10 - - - -
27/05:00am 7.4 NW 6 7 1014.4 - 0.0 - - 10 - - - -
27/04:30am 8.7 NW 7 9 1014.3 - 0.0 - - 10 - - - -
27/04:00am 8.4 NW 6 6 1014.7 - 0.0 - Partly cloudy 10 - - - -
27/03:30am 7.0 W 4 6 1014.8 - 0.0 - Partly cloudy 10 - - - -
27/03:00am 6.4 CALM 0 0 1014.8 F 0.0 - Mostly clear 10 - - - -
27/02:30am 7.3 NW 3 4 1014.9 - 0.0 - Partly cloudy 10 - - - -
27/02:00am 9.1 NNE 3 4 1015.2 - 0.0 - - 10 - - - -
27/01:30am 10.0 NNW 5 6 1015.5 - 0.0 - - 10 - - - -
27/01:00am 10.5 NNW 6 6 1015.7 - 0.0 - Partly cloudy 10 - - - -
27/12:30am 11.5 NW 3 3 1015.8 - 0.0 - Partly cloudy 10 - - - -
27/12:00am 11.6 WNW 3 5 1016.0 R 0.0 - Mostly clear 10 - - - -
 
Date/Time
EST
Temp
°C
Wind Pressure Rain since
9am
mm
Weather Cloud Vis
km
Sea
Height
m
Swell
Dir  Spd
kts
Gust
kts
hPa Trend Height
m
Period
s
Dir
26/11:30pm 11.9 NW 6 8 1016.1 - 0.0 - Partly cloudy 10 - - - -
26/11:00pm 13.7 NW 8 11 1016.2 - 0.0 - Cloudy 10 - - - -
26/10:30pm 13.7 NW 7 9 1016.3 - 0.0 - Cloudy 10 - - - -
26/10:00pm 14.2 NNW 6 8 1016.3 - 0.0 - Cloudy 10 - - - -
26/09:30pm 14.4 NW 8 10 1016.2 - 0.0 - Cloudy 10 - - - -
26/09:00pm 14.0 N 6 8 1016.2 R 0.0 - Mostly cloudy 10 - - - -
26/08:30pm 12.7 NW 4 5 1016.1 - 0.0 - Cloudy 10 - - - -
26/08:00pm 13.4 NNW 7 8 1015.8 - 0.0 - Cloudy 10 - - - -
26/07:30pm 13.9 NW 10 13 1015.6 - 0.0 - Partly cloudy 10 - - - -
26/07:00pm 14.3 NW 12 15 1015.4 - 0.0 - - 10 - - - -
26/06:30pm 14.9 NW 14 18 1015.3 - 0.0 - - 10 - - - -
26/06:00pm 14.7 NW 8 11 1015.1 S 0.0 - - 10 - - - -

Other Formats:

Comma delimited format used in spreadsheet applications
http://www.bom.gov.au/fwo/IDN60701/IDN60701.94776.axf

JavaScript Object Notation format (JSON) in row-major order
http://www.bom.gov.au/fwo/IDN60701/IDN60701.94776.json